sensor_id;sensor_type;location;lat;lon;timestamp;P1;durP1;ratioP1;P2;durP2;ratioP2
74674;SDS011;63200;48.810;12.352;2023-02-15T00:01:32;132.90;;;21.57;;
74674;SDS011;63200;48.810;12.352;2023-02-15T00:03:58;150.03;;;22.17;;
74674;SDS011;63200;48.810;12.352;2023-02-15T00:06:23;107.87;;;20.03;;
74674;SDS011;63200;48.810;12.352;2023-02-15T00:08:48;132.63;;;21.27;;
74674;SDS011;63200;48.810;12.352;2023-02-15T00:11:15;110.87;;;19.33;;
74674;SDS011;63200;48.810;12.352;2023-02-15T00:14:02;113.10;;;19.93;;
74674;SDS011;63200;48.810;12.352;2023-02-15T00:16:29;169.53;;;20.37;;
74674;SDS011;63200;48.810;12.352;2023-02-15T00:18:54;87.97;;;15.43;;
74674;SDS011;63200;48.810;12.352;2023-02-15T00:21:20;80.27;;;16.27;;
74674;SDS011;63200;48.810;12.352;2023-02-15T00:23:45;50.83;;;14.90;;
74674;SDS011;63200;48.810;12.352;2023-02-15T00:26:11;56.47;;;14.47;;
74674;SDS011;63200;48.810;12.352;2023-02-15T00:28:37;43.37;;;14.17;;
74674;SDS011;63200;48.810;12.352;2023-02-15T00:31:10;59.53;;;14.10;;
74674;SDS011;63200;48.810;12.352;2023-02-15T00:33:36;66.00;;;15.23;;
74674;SDS011;63200;48.810;12.352;2023-02-15T00:36:02;61.80;;;16.03;;
74674;SDS011;63200;48.810;12.352;2023-02-15T00:38:30;73.03;;;15.03;;
74674;SDS011;63200;48.810;12.352;2023-02-15T00:40:57;62.63;;;15.23;;
74674;SDS011;63200;48.810;12.352;2023-02-15T00:43:24;47.97;;;14.37;;
74674;SDS011;63200;48.810;12.352;2023-02-15T00:45:50;52.50;;;14.73;;
74674;SDS011;63200;48.810;12.352;2023-02-15T00:48:16;64.33;;;15.80;;
74674;SDS011;63200;48.810;12.352;2023-02-15T00:50:41;72.13;;;15.53;;
74674;SDS011;63200;48.810;12.352;2023-02-15T00:53:06;92.77;;;17.47;;
74674;SDS011;63200;48.810;12.352;2023-02-15T00:55:32;94.50;;;18.47;;
74674;SDS011;63200;48.810;12.352;2023-02-15T00:57:58;91.07;;;17.40;;
74674;SDS011;63200;48.810;12.352;2023-02-15T01:00:23;136.53;;;19.97;;
74674;SDS011;63200;48.810;12.352;2023-02-15T01:02:49;74.03;;;15.67;;
74674;SDS011;63200;48.810;12.352;2023-02-15T01:05:14;68.93;;;15.70;;
74674;SDS011;63200;48.810;12.352;2023-02-15T01:07:39;34.67;;;11.57;;
74674;SDS011;63200;48.810;12.352;2023-02-15T01:10:05;56.27;;;15.33;;
74674;SDS011;63200;48.810;12.352;2023-02-15T01:12:32;83.00;;;16.07;;
74674;SDS011;63200;48.810;12.352;2023-02-15T01:14:57;62.23;;;15.13;;
74674;SDS011;63200;48.810;12.352;2023-02-15T01:17:23;122.00;;;16.17;;
74674;SDS011;63200;48.810;12.352;2023-02-15T01:19:48;103.47;;;16.50;;
74674;SDS011;63200;48.810;12.352;2023-02-15T01:22:13;95.43;;;18.17;;
74674;SDS011;63200;48.810;12.352;2023-02-15T01:24:39;89.27;;;18.20;;
74674;SDS011;63200;48.810;12.352;2023-02-15T01:27:04;125.27;;;18.50;;
74674;SDS011;63200;48.810;12.352;2023-02-15T01:29:29;84.00;;;17.17;;
74674;SDS011;63200;48.810;12.352;2023-02-15T01:31:54;63.50;;;15.80;;
74674;SDS011;63200;48.810;12.352;2023-02-15T01:34:20;63.00;;;16.53;;
74674;SDS011;63200;48.810;12.352;2023-02-15T01:36:45;91.73;;;19.13;;
74674;SDS011;63200;48.810;12.352;2023-02-15T01:39:10;130.33;;;20.73;;
74674;SDS011;63200;48.810;12.352;2023-02-15T01:41:36;141.33;;;21.47;;
74674;SDS011;63200;48.810;12.352;2023-02-15T01:44:01;68.70;;;15.37;;
74674;SDS011;63200;48.810;12.352;2023-02-15T01:46:48;70.13;;;16.10;;
74674;SDS011;63200;48.810;12.352;2023-02-15T01:49:18;51.07;;;13.97;;
74674;SDS011;63200;48.810;12.352;2023-02-15T01:51:49;66.47;;;15.53;;
74674;SDS011;63200;48.810;12.352;2023-02-15T01:54:19;97.97;;;16.23;;
74674;SDS011;63200;48.810;12.352;2023-02-15T01:56:51;68.03;;;13.80;;
74674;SDS011;63200;48.810;12.352;2023-02-15T01:59:20;65.53;;;16.13;;
74674;SDS011;63200;48.810;12.352;2023-02-15T02:01:48;49.40;;;14.30;;
74674;SDS011;63200;48.810;12.352;2023-02-15T02:06:44;76.03;;;16.87;;
74674;SDS011;63200;48.810;12.352;2023-02-15T02:09:13;58.57;;;15.17;;
74674;SDS011;63200;48.810;12.352;2023-02-15T02:11:38;88.90;;;20.10;;
74674;SDS011;63200;48.810;12.352;2023-02-15T02:14:05;127.80;;;18.50;;
74674;SDS011;63200;48.810;12.352;2023-02-15T02:16:34;94.67;;;18.80;;
74674;SDS011;63200;48.810;12.352;2023-02-15T02:44:19;97.93;;;15.30;;
74674;SDS011;63200;48.810;12.352;2023-02-15T02:46:55;93.13;;;15.67;;
74674;SDS011;63200;48.810;12.352;2023-02-15T02:49:31;67.37;;;14.77;;
74674;SDS011;63200;48.810;12.352;2023-02-15T02:51:59;59.37;;;15.10;;
74674;SDS011;63200;48.810;12.352;2023-02-15T02:54:28;55.47;;;14.27;;
74674;SDS011;63200;48.810;12.352;2023-02-15T02:56:56;62.40;;;16.20;;
74674;SDS011;63200;48.810;12.352;2023-02-15T02:59:30;57.83;;;17.03;;
74674;SDS011;63200;48.810;12.352;2023-02-15T03:02:09;85.53;;;19.57;;
74674;SDS011;63200;48.810;12.352;2023-02-15T03:04:39;79.50;;;17.33;;
74674;SDS011;63200;48.810;12.352;2023-02-15T03:07:12;94.90;;;22.23;;
74674;SDS011;63200;48.810;12.352;2023-02-15T03:09:47;86.80;;;16.60;;
74674;SDS011;63200;48.810;12.352;2023-02-15T03:12:16;88.17;;;18.20;;
74674;SDS011;63200;48.810;12.352;2023-02-15T03:14:46;76.67;;;17.77;;
74674;SDS011;63200;48.810;12.352;2023-02-15T03:17:16;89.33;;;17.53;;
74674;SDS011;63200;48.810;12.352;2023-02-15T03:19:44;49.10;;;13.43;;
74674;SDS011;63200;48.810;12.352;2023-02-15T03:22:13;87.97;;;16.37;;
74674;SDS011;63200;48.810;12.352;2023-02-15T03:24:50;67.50;;;15.97;;
74674;SDS011;63200;48.810;12.352;2023-02-15T03:27:22;88.00;;;19.10;;
74674;SDS011;63200;48.810;12.352;2023-02-15T03:29:52;79.63;;;18.60;;
74674;SDS011;63200;48.810;12.352;2023-02-15T03:32:20;108.97;;;20.27;;
74674;SDS011;63200;48.810;12.352;2023-02-15T03:34:47;90.37;;;17.33;;
74674;SDS011;63200;48.810;12.352;2023-02-15T03:37:14;69.77;;;15.23;;
74674;SDS011;63200;48.810;12.352;2023-02-15T03:39:56;73.93;;;16.73;;
74674;SDS011;63200;48.810;12.352;2023-02-15T03:43:30;103.47;;;17.23;;
74674;SDS011;63200;48.810;12.352;2023-02-15T03:46:05;139.20;;;18.33;;
74674;SDS011;63200;48.810;12.352;2023-02-15T03:48:37;122.37;;;19.03;;
74674;SDS011;63200;48.810;12.352;2023-02-15T03:51:08;96.63;;;18.20;;
74674;SDS011;63200;48.810;12.352;2023-02-15T03:54:03;70.17;;;16.97;;
74674;SDS011;63200;48.810;12.352;2023-02-15T03:56:33;95.63;;;17.97;;
74674;SDS011;63200;48.810;12.352;2023-02-15T03:59:04;77.80;;;15.33;;
74674;SDS011;63200;48.810;12.352;2023-02-15T04:01:59;83.63;;;16.73;;
74674;SDS011;63200;48.810;12.352;2023-02-15T04:04:36;75.53;;;16.07;;
74674;SDS011;63200;48.810;12.352;2023-02-15T04:07:04;103.17;;;20.47;;
74674;SDS011;63200;48.810;12.352;2023-02-15T04:09:31;85.70;;;19.33;;
74674;SDS011;63200;48.810;12.352;2023-02-15T04:12:14;55.43;;;14.50;;
74674;SDS011;63200;48.810;12.352;2023-02-15T04:14:40;85.40;;;16.70;;
74674;SDS011;63200;48.810;12.352;2023-02-15T04:17:24;111.77;;;21.87;;
74674;SDS011;63200;48.810;12.352;2023-02-15T04:19:49;124.97;;;21.13;;
74674;SDS011;63200;48.810;12.352;2023-02-15T04:22:33;131.63;;;20.90;;
74674;SDS011;63200;48.810;12.352;2023-02-15T04:25:16;86.23;;;17.20;;
74674;SDS011;63200;48.810;12.352;2023-02-15T04:27:44;79.87;;;16.40;;
74674;SDS011;63200;48.810;12.352;2023-02-15T04:30:18;67.23;;;18.67;;
74674;SDS011;63200;48.810;12.352;2023-02-15T04:32:45;73.10;;;16.57;;
74674;SDS011;63200;48.810;12.352;2023-02-15T04:35:10;70.00;;;17.80;;
74674;SDS011;63200;48.810;12.352;2023-02-15T04:37:36;90.67;;;19.30;;
74674;SDS011;63200;48.810;12.352;2023-02-15T04:40:03;95.07;;;18.40;;
74674;SDS011;63200;48.810;12.352;2023-02-15T04:42:29;66.53;;;16.63;;
74674;SDS011;63200;48.810;12.352;2023-02-15T04:44:54;66.30;;;17.37;;
74674;SDS011;63200;48.810;12.352;2023-02-15T04:47:20;62.87;;;16.87;;
74674;SDS011;63200;48.810;12.352;2023-02-15T04:49:46;70.90;;;18.03;;
74674;SDS011;63200;48.810;12.352;2023-02-15T04:52:11;68.80;;;16.23;;
74674;SDS011;63200;48.810;12.352;2023-02-15T04:54:36;58.03;;;15.53;;
74674;SDS011;63200;48.810;12.352;2023-02-15T04:57:03;40.93;;;13.43;;
74674;SDS011;63200;48.810;12.352;2023-02-15T04:59:29;37.27;;;10.30;;
74674;SDS011;63200;48.810;12.352;2023-02-15T05:01:54;47.90;;;13.47;;
74674;SDS011;63200;48.810;12.352;2023-02-15T05:04:20;42.13;;;14.37;;
74674;SDS011;63200;48.810;12.352;2023-02-15T05:06:45;38.40;;;13.13;;
74674;SDS011;63200;48.810;12.352;2023-02-15T05:09:11;44.40;;;14.07;;
74674;SDS011;63200;48.810;12.352;2023-02-15T05:11:37;46.17;;;13.57;;
74674;SDS011;63200;48.810;12.352;2023-02-15T05:14:02;43.63;;;13.30;;
74674;SDS011;63200;48.810;12.352;2023-02-15T05:16:28;51.27;;;13.20;;
74674;SDS011;63200;48.810;12.352;2023-02-15T05:18:53;48.17;;;13.50;;
74674;SDS011;63200;48.810;12.352;2023-02-15T05:21:18;43.80;;;13.00;;
74674;SDS011;63200;48.810;12.352;2023-02-15T05:23:44;42.43;;;13.70;;
74674;SDS011;63200;48.810;12.352;2023-02-15T05:26:12;65.80;;;14.27;;
74674;SDS011;63200;48.810;12.352;2023-02-15T05:29:01;38.17;;;13.50;;
74674;SDS011;63200;48.810;12.352;2023-02-15T05:31:26;41.97;;;14.03;;
74674;SDS011;63200;48.810;12.352;2023-02-15T05:33:51;37.63;;;13.93;;
74674;SDS011;63200;48.810;12.352;2023-02-15T05:36:17;33.20;;;12.43;;
74674;SDS011;63200;48.810;12.352;2023-02-15T05:38:42;41.23;;;13.90;;
74674;SDS011;63200;48.810;12.352;2023-02-15T05:41:08;36.80;;;13.30;;
74674;SDS011;63200;48.810;12.352;2023-02-15T05:43:34;31.83;;;12.87;;
74674;SDS011;63200;48.810;12.352;2023-02-15T05:46:00;47.20;;;14.13;;
74674;SDS011;63200;48.810;12.352;2023-02-15T05:48:26;44.17;;;13.97;;
74674;SDS011;63200;48.810;12.352;2023-02-15T05:51:05;39.13;;;13.47;;
74674;SDS011;63200;48.810;12.352;2023-02-15T05:53:33;35.30;;;13.30;;
74674;SDS011;63200;48.810;12.352;2023-02-15T05:56:01;37.87;;;12.50;;
74674;SDS011;63200;48.810;12.352;2023-02-15T05:58:31;27.80;;;10.37;;
74674;SDS011;63200;48.810;12.352;2023-02-15T06:00:58;32.40;;;12.20;;
74674;SDS011;63200;48.810;12.352;2023-02-15T06:03:23;32.70;;;11.63;;
74674;SDS011;63200;48.810;12.352;2023-02-15T06:05:50;35.97;;;13.30;;
74674;SDS011;63200;48.810;12.352;2023-02-15T06:08:16;34.97;;;13.07;;
74674;SDS011;63200;48.810;12.352;2023-02-15T06:10:41;35.93;;;13.90;;
74674;SDS011;63200;48.810;12.352;2023-02-15T06:13:07;37.97;;;14.03;;
74674;SDS011;63200;48.810;12.352;2023-02-15T06:15:32;44.57;;;14.10;;
74674;SDS011;63200;48.810;12.352;2023-02-15T06:17:57;42.93;;;14.73;;
74674;SDS011;63200;48.810;12.352;2023-02-15T06:20:23;39.17;;;14.20;;
74674;SDS011;63200;48.810;12.352;2023-02-15T06:22:49;45.93;;;14.87;;
74674;SDS011;63200;48.810;12.352;2023-02-15T06:25:14;46.83;;;15.30;;
74674;SDS011;63200;48.810;12.352;2023-02-15T06:27:42;36.43;;;12.00;;
74674;SDS011;63200;48.810;12.352;2023-02-15T06:30:08;33.40;;;13.63;;
74674;SDS011;63200;48.810;12.352;2023-02-15T06:32:35;31.77;;;12.57;;
74674;SDS011;63200;48.810;12.352;2023-02-15T06:35:00;31.30;;;12.50;;
74674;SDS011;63200;48.810;12.352;2023-02-15T06:37:26;36.93;;;13.00;;
74674;SDS011;63200;48.810;12.352;2023-02-15T06:39:51;38.53;;;13.13;;
74674;SDS011;63200;48.810;12.352;2023-02-15T06:42:17;32.70;;;11.90;;
74674;SDS011;63200;48.810;12.352;2023-02-15T06:44:43;28.67;;;11.10;;
74674;SDS011;63200;48.810;12.352;2023-02-15T06:47:08;33.77;;;12.43;;
74674;SDS011;63200;48.810;12.352;2023-02-15T06:49:34;41.83;;;13.80;;
74674;SDS011;63200;48.810;12.352;2023-02-15T06:51:59;38.00;;;14.07;;
74674;SDS011;63200;48.810;12.352;2023-02-15T06:54:24;32.40;;;13.27;;
74674;SDS011;63200;48.810;12.352;2023-02-15T06:56:50;37.00;;;12.93;;
74674;SDS011;63200;48.810;12.352;2023-02-15T06:59:15;33.57;;;12.90;;
74674;SDS011;63200;48.810;12.352;2023-02-15T07:01:40;46.43;;;15.30;;
74674;SDS011;63200;48.810;12.352;2023-02-15T07:04:05;34.63;;;13.43;;
74674;SDS011;63200;48.810;12.352;2023-02-15T07:06:33;39.33;;;15.43;;
74674;SDS011;63200;48.810;12.352;2023-02-15T07:08:59;50.17;;;13.93;;
74674;SDS011;63200;48.810;12.352;2023-02-15T07:11:24;38.67;;;14.57;;
74674;SDS011;63200;48.810;12.352;2023-02-15T07:14:09;46.00;;;16.90;;
74674;SDS011;63200;48.810;12.352;2023-02-15T07:16:34;45.80;;;15.40;;
74674;SDS011;63200;48.810;12.352;2023-02-15T07:18:59;32.17;;;11.30;;
74674;SDS011;63200;48.810;12.352;2023-02-15T07:21:24;48.10;;;14.97;;
74674;SDS011;63200;48.810;12.352;2023-02-15T07:23:50;43.67;;;13.20;;
74674;SDS011;63200;48.810;12.352;2023-02-15T07:26:15;40.37;;;14.03;;
74674;SDS011;63200;48.810;12.352;2023-02-15T07:28:40;39.50;;;14.63;;
74674;SDS011;63200;48.810;12.352;2023-02-15T07:31:06;44.20;;;16.10;;
74674;SDS011;63200;48.810;12.352;2023-02-15T07:33:32;45.77;;;16.50;;
74674;SDS011;63200;48.810;12.352;2023-02-15T07:35:59;48.60;;;15.63;;
74674;SDS011;63200;48.810;12.352;2023-02-15T07:38:29;52.07;;;14.97;;
74674;SDS011;63200;48.810;12.352;2023-02-15T07:40:59;42.63;;;13.63;;
74674;SDS011;63200;48.810;12.352;2023-02-15T07:43:25;41.63;;;15.37;;
74674;SDS011;63200;48.810;12.352;2023-02-15T07:45:51;43.47;;;13.63;;
74674;SDS011;63200;48.810;12.352;2023-02-15T07:48:17;46.70;;;14.10;;
74674;SDS011;63200;48.810;12.352;2023-02-15T07:50:42;37.53;;;15.27;;
74674;SDS011;63200;48.810;12.352;2023-02-15T07:53:08;50.60;;;17.03;;
74674;SDS011;63200;48.810;12.352;2023-02-15T07:55:33;59.87;;;19.40;;
74674;SDS011;63200;48.810;12.352;2023-02-15T07:57:58;74.33;;;21.50;;
74674;SDS011;63200;48.810;12.352;2023-02-15T08:00:24;79.90;;;20.33;;
74674;SDS011;63200;48.810;12.352;2023-02-15T08:02:52;78.83;;;23.77;;
74674;SDS011;63200;48.810;12.352;2023-02-15T08:05:39;85.70;;;24.50;;
74674;SDS011;63200;48.810;12.352;2023-02-15T08:08:05;97.03;;;24.93;;
74674;SDS011;63200;48.810;12.352;2023-02-15T08:10:32;83.40;;;21.13;;
74674;SDS011;63200;48.810;12.352;2023-02-15T08:13:16;75.13;;;20.57;;
74674;SDS011;63200;48.810;12.352;2023-02-15T08:15:47;87.90;;;23.23;;
74674;SDS011;63200;48.810;12.352;2023-02-15T08:18:15;87.10;;;22.53;;
74674;SDS011;63200;48.810;12.352;2023-02-15T08:20:41;85.77;;;22.07;;
74674;SDS011;63200;48.810;12.352;2023-02-15T08:23:06;113.30;;;24.30;;
74674;SDS011;63200;48.810;12.352;2023-02-15T08:25:32;10.07;;;4.57;;
74674;SDS011;63200;48.810;12.352;2023-02-15T08:27:57;50.67;;;15.20;;
74674;SDS011;63200;48.810;12.352;2023-02-15T08:30:22;50.03;;;18.00;;
74674;SDS011;63200;48.810;12.352;2023-02-15T08:32:47;49.03;;;17.57;;
74674;SDS011;63200;48.810;12.352;2023-02-15T08:35:13;45.53;;;15.40;;
74674;SDS011;63200;48.810;12.352;2023-02-15T08:37:38;46.63;;;15.97;;
74674;SDS011;63200;48.810;12.352;2023-02-15T08:40:04;39.93;;;12.80;;
74674;SDS011;63200;48.810;12.352;2023-02-15T08:42:31;41.33;;;16.33;;
74674;SDS011;63200;48.810;12.352;2023-02-15T08:44:58;35.87;;;13.57;;
74674;SDS011;63200;48.810;12.352;2023-02-15T08:47:23;33.53;;;12.77;;
74674;SDS011;63200;48.810;12.352;2023-02-15T08:49:48;16.00;;;7.10;;
74674;SDS011;63200;48.810;12.352;2023-02-15T08:52:13;23.97;;;9.37;;
74674;SDS011;63200;48.810;12.352;2023-02-15T08:54:39;28.23;;;11.27;;
74674;SDS011;63200;48.810;12.352;2023-02-15T08:57:04;22.80;;;8.53;;
74674;SDS011;63200;48.810;12.352;2023-02-15T08:59:31;33.17;;;13.23;;
74674;SDS011;63200;48.810;12.352;2023-02-15T09:01:57;33.70;;;14.80;;
74674;SDS011;63200;48.810;12.352;2023-02-15T09:04:22;44.73;;;16.97;;
74674;SDS011;63200;48.810;12.352;2023-02-15T09:06:48;50.47;;;18.30;;
74674;SDS011;63200;48.810;12.352;2023-02-15T09:09:14;61.63;;;22.37;;
74674;SDS011;63200;48.810;12.352;2023-02-15T09:11:41;59.47;;;18.73;;
74674;SDS011;63200;48.810;12.352;2023-02-15T09:14:11;78.00;;;22.77;;
74674;SDS011;63200;48.810;12.352;2023-02-15T09:16:39;68.23;;;18.50;;
74674;SDS011;63200;48.810;12.352;2023-02-15T09:19:05;65.77;;;19.17;;
74674;SDS011;63200;48.810;12.352;2023-02-15T09:21:31;57.50;;;18.23;;
74674;SDS011;63200;48.810;12.352;2023-02-15T09:23:59;49.20;;;17.07;;
74674;SDS011;63200;48.810;12.352;2023-02-15T09:26:27;42.17;;;15.00;;
74674;SDS011;63200;48.810;12.352;2023-02-15T09:28:54;39.80;;;14.50;;
74674;SDS011;63200;48.810;12.352;2023-02-15T09:31:23;40.30;;;14.43;;
74674;SDS011;63200;48.810;12.352;2023-02-15T09:33:50;37.93;;;15.50;;
74674;SDS011;63200;48.810;12.352;2023-02-15T09:36:17;38.33;;;14.50;;
74674;SDS011;63200;48.810;12.352;2023-02-15T09:38:52;44.17;;;15.23;;
74674;SDS011;63200;48.810;12.352;2023-02-15T09:46:44;32.67;;;12.17;;
74674;SDS011;63200;48.810;12.352;2023-02-15T09:49:23;40.90;;;14.67;;
74674;SDS011;63200;48.810;12.352;2023-02-15T09:52:14;37.20;;;15.00;;
74674;SDS011;63200;48.810;12.352;2023-02-15T10:00:12;38.47;;;14.47;;
74674;SDS011;63200;48.810;12.352;2023-02-15T10:03:15;39.50;;;15.13;;
74674;SDS011;63200;48.810;12.352;2023-02-15T10:06:08;41.23;;;16.57;;
74674;SDS011;63200;48.810;12.352;2023-02-15T10:28:25;31.93;;;13.07;;
74674;SDS011;63200;48.810;12.352;2023-02-15T10:31:01;33.33;;;14.30;;
74674;SDS011;63200;48.810;12.352;2023-02-15T10:33:38;35.60;;;14.90;;
74674;SDS011;63200;48.810;12.352;2023-02-15T10:36:10;36.43;;;14.87;;
74674;SDS011;63200;48.810;12.352;2023-02-15T10:44:11;41.97;;;17.27;;
74674;SDS011;63200;48.810;12.352;2023-02-15T10:57:27;49.13;;;17.60;;
74674;SDS011;63200;48.810;12.352;2023-02-15T11:08:26;38.67;;;15.67;;
74674;SDS011;63200;48.810;12.352;2023-02-15T11:10:57;37.97;;;16.03;;
74674;SDS011;63200;48.810;12.352;2023-02-15T11:13:27;38.67;;;15.63;;
74674;SDS011;63200;48.810;12.352;2023-02-15T11:16:44;37.73;;;16.10;;
74674;SDS011;63200;48.810;12.352;2023-02-15T11:19:00;46.30;;;16.50;;
74674;SDS011;63200;48.810;12.352;2023-02-15T11:21:39;43.67;;;19.53;;
74674;SDS011;63200;48.810;12.352;2023-02-15T11:24:18;47.77;;;19.30;;
74674;SDS011;63200;48.810;12.352;2023-02-15T11:26:54;53.53;;;20.00;;
74674;SDS011;63200;48.810;12.352;2023-02-15T11:37:15;38.33;;;15.30;;
74674;SDS011;63200;48.810;12.352;2023-02-15T11:39:45;43.73;;;15.67;;
74674;SDS011;63200;48.810;12.352;2023-02-15T11:42:17;41.03;;;15.83;;
74674;SDS011;63200;48.810;12.352;2023-02-15T11:44:53;40.30;;;15.23;;
74674;SDS011;63200;48.810;12.352;2023-02-15T11:47:38;39.40;;;15.57;;
74674;SDS011;63200;48.810;12.352;2023-02-15T11:50:03;37.23;;;14.97;;
74674;SDS011;63200;48.810;12.352;2023-02-15T11:52:29;35.07;;;16.17;;
74674;SDS011;63200;48.810;12.352;2023-02-15T11:54:54;37.33;;;14.93;;
74674;SDS011;63200;48.810;12.352;2023-02-15T11:57:23;39.50;;;16.33;;
74674;SDS011;63200;48.810;12.352;2023-02-15T12:02:37;43.43;;;16.90;;
74674;SDS011;63200;48.810;12.352;2023-02-15T12:05:10;41.07;;;16.10;;
74674;SDS011;63200;48.810;12.352;2023-02-15T12:10:30;42.37;;;17.47;;
74674;SDS011;63200;48.810;12.352;2023-02-15T12:13:11;38.73;;;16.43;;
74674;SDS011;63200;48.810;12.352;2023-02-15T12:15:43;42.17;;;17.70;;
74674;SDS011;63200;48.810;12.352;2023-02-15T12:20:46;41.50;;;18.73;;
74674;SDS011;63200;48.810;12.352;2023-02-15T12:23:12;45.23;;;19.27;;
74674;SDS011;63200;48.810;12.352;2023-02-15T12:25:50;50.20;;;20.80;;
74674;SDS011;63200;48.810;12.352;2023-02-15T12:28:32;57.43;;;20.73;;
74674;SDS011;63200;48.810;12.352;2023-02-15T12:31:03;43.63;;;17.87;;
74674;SDS011;63200;48.810;12.352;2023-02-15T12:33:36;52.03;;;20.93;;
74674;SDS011;63200;48.810;12.352;2023-02-15T12:41:29;44.07;;;17.90;;
74674;SDS011;63200;48.810;12.352;2023-02-15T12:46:31;44.10;;;17.77;;
74674;SDS011;63200;48.810;12.352;2023-02-15T12:49:07;42.10;;;17.90;;
74674;SDS011;63200;48.810;12.352;2023-02-15T12:51:47;42.33;;;18.87;;
74674;SDS011;63200;48.810;12.352;2023-02-15T12:56:58;36.50;;;13.60;;
74674;SDS011;63200;48.810;12.352;2023-02-15T12:59:24;45.93;;;17.03;;
74674;SDS011;63200;48.810;12.352;2023-02-15T13:01:51;41.77;;;16.00;;
74674;SDS011;63200;48.810;12.352;2023-02-15T13:04:25;37.30;;;15.27;;
74674;SDS011;63200;48.810;12.352;2023-02-15T13:06:52;35.67;;;15.30;;
74674;SDS011;63200;48.810;12.352;2023-02-15T13:09:34;36.20;;;15.23;;
74674;SDS011;63200;48.810;12.352;2023-02-15T13:14:47;36.50;;;16.10;;
74674;SDS011;63200;48.810;12.352;2023-02-15T13:17:16;37.83;;;15.53;;
74674;SDS011;63200;48.810;12.352;2023-02-15T13:19:47;38.17;;;15.67;;
74674;SDS011;63200;48.810;12.352;2023-02-15T13:22:17;35.63;;;15.90;;
74674;SDS011;63200;48.810;12.352;2023-02-15T13:24:48;41.73;;;17.30;;
74674;SDS011;63200;48.810;12.352;2023-02-15T13:27:18;40.10;;;16.93;;
74674;SDS011;63200;48.810;12.352;2023-02-15T13:29:49;45.30;;;18.23;;
74674;SDS011;63200;48.810;12.352;2023-02-15T13:34:56;44.53;;;18.07;;
74674;SDS011;63200;48.810;12.352;2023-02-15T13:37:30;41.00;;;16.90;;
74674;SDS011;63200;48.810;12.352;2023-02-15T13:40:03;40.80;;;16.70;;
74674;SDS011;63200;48.810;12.352;2023-02-15T13:53:09;37.60;;;16.03;;
74674;SDS011;63200;48.810;12.352;2023-02-15T13:58:32;40.73;;;17.37;;
74674;SDS011;63200;48.810;12.352;2023-02-15T14:03:51;44.00;;;17.30;;
74674;SDS011;63200;48.810;12.352;2023-02-15T14:20:17;40.83;;;17.63;;
74674;SDS011;63200;48.810;12.352;2023-02-15T14:22:54;40.47;;;17.10;;
74674;SDS011;63200;48.810;12.352;2023-02-15T14:25:42;39.00;;;15.20;;
74674;SDS011;63200;48.810;12.352;2023-02-15T14:28:17;37.80;;;16.87;;
74674;SDS011;63200;48.810;12.352;2023-02-15T14:30:54;42.57;;;16.23;;
74674;SDS011;63200;48.810;12.352;2023-02-15T14:33:32;33.83;;;14.27;;
74674;SDS011;63200;48.810;12.352;2023-02-15T14:36:03;37.83;;;15.57;;
74674;SDS011;63200;48.810;12.352;2023-02-15T14:38:44;39.33;;;15.63;;
74674;SDS011;63200;48.810;12.352;2023-02-15T14:46:50;38.43;;;15.07;;
74674;SDS011;63200;48.810;12.352;2023-02-15T14:49:25;35.83;;;16.00;;
74674;SDS011;63200;48.810;12.352;2023-02-15T14:51:56;42.00;;;17.73;;
74674;SDS011;63200;48.810;12.352;2023-02-15T14:59:26;42.93;;;18.07;;
74674;SDS011;63200;48.810;12.352;2023-02-15T15:04:34;41.17;;;17.40;;
74674;SDS011;63200;48.810;12.352;2023-02-15T15:07:18;38.37;;;16.10;;
74674;SDS011;63200;48.810;12.352;2023-02-15T15:10:00;44.70;;;19.27;;
74674;SDS011;63200;48.810;12.352;2023-02-15T15:14:59;45.10;;;20.23;;
74674;SDS011;63200;48.810;12.352;2023-02-15T15:22:50;49.57;;;20.13;;
74674;SDS011;63200;48.810;12.352;2023-02-15T15:31:01;48.60;;;21.13;;
74674;SDS011;63200;48.810;12.352;2023-02-15T15:33:32;44.83;;;18.47;;
74674;SDS011;63200;48.810;12.352;2023-02-15T15:50:16;49.20;;;20.07;;
74674;SDS011;63200;48.810;12.352;2023-02-15T15:52:47;53.33;;;21.00;;
74674;SDS011;63200;48.810;12.352;2023-02-15T15:55:20;55.33;;;21.20;;
74674;SDS011;63200;48.810;12.352;2023-02-15T15:57:55;48.13;;;20.37;;
74674;SDS011;63200;48.810;12.352;2023-02-15T16:00:34;47.87;;;18.47;;
74674;SDS011;63200;48.810;12.352;2023-02-15T16:03:00;52.67;;;21.40;;
74674;SDS011;63200;48.810;12.352;2023-02-15T16:05:26;52.23;;;21.13;;
74674;SDS011;63200;48.810;12.352;2023-02-15T16:07:51;48.40;;;19.87;;
74674;SDS011;63200;48.810;12.352;2023-02-15T16:10:21;48.07;;;19.57;;
74674;SDS011;63200;48.810;12.352;2023-02-15T16:12:48;46.40;;;18.80;;
74674;SDS011;63200;48.810;12.352;2023-02-15T16:15:16;48.97;;;20.50;;
74674;SDS011;63200;48.810;12.352;2023-02-15T16:17:44;57.87;;;25.53;;
74674;SDS011;63200;48.810;12.352;2023-02-15T16:20:17;53.90;;;20.33;;
74674;SDS011;63200;48.810;12.352;2023-02-15T16:22:48;48.20;;;18.57;;
74674;SDS011;63200;48.810;12.352;2023-02-15T16:25:37;44.80;;;17.97;;
74674;SDS011;63200;48.810;12.352;2023-02-15T16:28:08;43.27;;;17.37;;
74674;SDS011;63200;48.810;12.352;2023-02-15T16:30:36;44.53;;;17.07;;
74674;SDS011;63200;48.810;12.352;2023-02-15T16:33:11;43.17;;;17.97;;
74674;SDS011;63200;48.810;12.352;2023-02-15T16:35:52;44.20;;;17.77;;
74674;SDS011;63200;48.810;12.352;2023-02-15T16:38:30;42.23;;;16.57;;
74674;SDS011;63200;48.810;12.352;2023-02-15T16:41:23;44.67;;;17.00;;
74674;SDS011;63200;48.810;12.352;2023-02-15T16:43:52;41.70;;;17.23;;
74674;SDS011;63200;48.810;12.352;2023-02-15T16:49:00;40.87;;;16.93;;
74674;SDS011;63200;48.810;12.352;2023-02-15T16:51:31;45.37;;;17.90;;
74674;SDS011;63200;48.810;12.352;2023-02-15T16:54:01;40.70;;;16.40;;
74674;SDS011;63200;48.810;12.352;2023-02-15T16:56:31;42.20;;;16.67;;
74674;SDS011;63200;48.810;12.352;2023-02-15T16:58:58;46.77;;;16.13;;
74674;SDS011;63200;48.810;12.352;2023-02-15T17:01:26;44.27;;;17.13;;
74674;SDS011;63200;48.810;12.352;2023-02-15T17:04:11;42.93;;;18.07;;
74674;SDS011;63200;48.810;12.352;2023-02-15T17:09:23;49.53;;;18.63;;
74674;SDS011;63200;48.810;12.352;2023-02-15T17:11:50;53.53;;;19.33;;
74674;SDS011;63200;48.810;12.352;2023-02-15T17:14:26;66.03;;;21.97;;
74674;SDS011;63200;48.810;12.352;2023-02-15T17:17:05;61.73;;;22.10;;
74674;SDS011;63200;48.810;12.352;2023-02-15T17:22:27;67.47;;;25.07;;
74674;SDS011;63200;48.810;12.352;2023-02-15T17:25:02;65.70;;;22.30;;
74674;SDS011;63200;48.810;12.352;2023-02-15T17:27:29;74.27;;;23.07;;
74674;SDS011;63200;48.810;12.352;2023-02-15T17:30:01;68.97;;;22.43;;
74674;SDS011;63200;48.810;12.352;2023-02-15T17:32:39;63.13;;;22.37;;
74674;SDS011;63200;48.810;12.352;2023-02-15T17:35:19;58.03;;;21.43;;
74674;SDS011;63200;48.810;12.352;2023-02-15T17:38:03;66.37;;;20.77;;
74674;SDS011;63200;48.810;12.352;2023-02-15T17:40:42;62.67;;;21.77;;